Time;durP1;ratioP1;P1;durP2;ratioP2;P2;SDS_P1;SDS_P2;PMS_P1;PMS_P2;Temp;Humidity;BMP_temperature;BMP_pressure;BME280_temperature;BME280_humidity;BME280_pressure;Samples;Min_cycle;Max_cycle;Signal;HPM_P1;HPM_P2
2023/03/19 00:00:21;;;;;;;;;;;;;;;12.93;83.66;99798.22;5052282;28;20046;-60
2023/03/19 00:02:50;;;;;;;;;;;;;;;12.95;83.48;99802.53;5054585;28;20018;-60
2023/03/19 00:05:15;;;;;;;;;;;;;;;12.94;80.16;99811.50;5061601;28;19967;-60
2023/03/19 00:07:40;;;;;;;;;;;;;;;12.99;78.21;99809.47;5066944;28;20325;-57
2023/03/19 00:10:06;;;;;;;;;;;;;;;13.06;76.75;99805.59;5071188;28;20393;-60
2023/03/19 00:12:31;;;;;;;;;;;;;;;13.16;76.63;99806.91;5069837;28;19930;-59
2023/03/19 00:14:56;;;;;;;;;;;;;;;13.15;76.96;99810.53;5052618;28;19931;-59
2023/03/19 00:17:22;;;;;;;;;;;;;;;13.17;76.61;99814.00;5051931;28;20307;-60
2023/03/19 00:19:47;;;;;;;;;;;;;;;13.16;76.41;99809.59;5054125;28;19938;-59
2023/03/19 00:22:12;;;;;;;;;;;;;;;13.12;77.16;99816.03;5053359;28;19938;-60
2023/03/19 00:24:38;;;;;;;;;;;;;;;13.10;77.49;99814.34;5050928;28;20338;-60
2023/03/19 00:27:03;;;;;;;;;;;;;;;13.05;77.02;99819.91;5053553;28;19951;-59
2023/03/19 00:29:28;;;;;;;;;;;;;;;13.02;77.85;99812.03;5050932;28;20492;-60
2023/03/19 00:31:53;;;;;;;;;;;;;;;13.03;77.58;99812.91;5054105;28;20208;-60
2023/03/19 00:34:19;;;;;;;;;;;;;;;13.02;77.80;99808.50;5071258;28;19942;-60
2023/03/19 00:36:45;;;;;;;;;;;;;;;12.98;77.67;99815.75;5072044;28;20050;-59
2023/03/19 00:39:11;;;;;;;;;;;;;;;12.96;77.77;99819.44;5072051;28;19962;-61
2023/03/19 00:41:36;;;;;;;;;;;;;;;12.92;77.94;99831.16;5068685;28;20619;-60
2023/03/19 00:44:02;;;;;;;;;;;;;;;12.87;78.45;99826.03;5054111;28;19934;-60
2023/03/19 00:46:28;;;;;;;;;;;;;;;12.87;78.57;99831.38;5051614;28;20005;-60
2023/03/19 00:48:54;;;;;;;;;;;;;;;12.86;79.06;99829.66;5054220;28;20044;-57
2023/03/19 00:51:20;;;;;;;;;;;;;;;12.90;78.65;99841.91;5053966;28;19946;-60
2023/03/19 00:53:46;;;;;;;;;;;;;;;12.90;78.40;99843.72;5051751;28;19946;-60
2023/03/19 00:56:12;;;;;;;;;;;;;;;12.95;77.47;99847.03;5054018;28;19954;-59
2023/03/19 00:58:39;;;;;;;;;;;;;;;13.00;76.84;99848.56;5054054;28;20033;-59
2023/03/19 01:01:06;;;;;;;;;;;;;;;13.08;76.93;99841.13;5051579;28;20346;-60
2023/03/19 01:03:31;;;;;;;;;;;;;;;13.15;76.77;99825.69;5060041;28;19931;-60
2023/03/19 01:05:57;;;;;;;;;;;;;;;13.17;77.61;99829.16;5071240;28;19950;-60
2023/03/19 01:08:22;;;;;;;;;;;;;;;13.19;77.86;99838.81;5069060;28;19921;-60
2023/03/19 01:10:47;;;;;;;;;;;;;;;13.13;78.84;99832.88;5061046;28;19916;-60
2023/03/19 01:13:13;;;;;;;;;;;;;;;13.14;78.88;99835.53;5071398;28;20618;-60
2023/03/19 01:15:39;;;;;;;;;;;;;;;13.16;79.20;99830.94;5069797;28;19973;-60
2023/03/19 01:18:06;;;;;;;;;;;;;;;13.16;79.61;99836.28;5071254;28;20319;-60
2023/03/19 01:20:31;;;;;;;;;;;;;;;13.17;79.93;99839.84;5056852;28;19986;-60
2023/03/19 01:22:57;;;;;;;;;;;;;;;13.17;79.93;99840.72;5051678;28;19941;-60
2023/03/19 01:25:22;;;;;;;;;;;;;;;13.14;79.75;99846.19;5051390;28;20054;-60
2023/03/19 01:27:47;;;;;;;;;;;;;;;13.15;79.69;99842.59;5050898;28;20393;-60
2023/03/19 01:30:13;;;;;;;;;;;;;;;13.10;79.95;99839.25;5068407;28;19936;-60
2023/03/19 01:32:38;;;;;;;;;;;;;;;13.05;80.54;99841.25;5071063;28;19931;-60
2023/03/19 01:35:04;;;;;;;;;;;;;;;13.01;80.77;99841.47;5057213;28;20416;-60
2023/03/19 01:37:29;;;;;;;;;;;;;;;12.97;80.64;99842.50;5060138;28;19938;-60
2023/03/19 01:39:55;;;;;;;;;;;;;;;12.92;81.44;99842.72;5066763;28;19934;-60
2023/03/19 01:42:20;;;;;;;;;;;;;;;12.87;80.68;99830.50;5053827;28;19947;-60
2023/03/19 01:44:45;;;;;;;;;;;;;;;12.89;80.51;99837.53;5052465;28;19931;-61
2023/03/19 01:47:37;;;;;;;;;;;;;;;12.83;80.72;99837.78;5050355;28;20422;-60
2023/03/19 01:50:03;;;;;;;;;;;;;;;12.83;81.40;99836.94;5046335;28;19939;-60
2023/03/19 01:52:31;;;;;;;;;;;;;;;12.81;80.92;99838.78;5049871;28;19920;-60
2023/03/19 01:54:58;;;;;;;;;;;;;;;12.77;81.29;99845.19;5062244;28;19948;-60
2023/03/19 01:57:24;;;;;;;;;;;;;;;12.73;81.22;99838.28;5070513;28;20456;-60
2023/03/19 01:59:51;;;;;;;;;;;;;;;12.76;81.54;99836.34;5067014;28;19949;-60
2023/03/19 02:02:22;;;;;;;;;;;;;;;12.76;82.41;99838.13;5051097;28;19935;-60
2023/03/19 02:04:50;;;;;;;;;;;;;;;12.71;81.85;99835.66;5056473;28;20029;-60
2023/03/19 02:07:16;;;;;;;;;;;;;;;12.67;82.39;99827.84;5062687;28;19992;-61
2023/03/19 02:09:41;;;;;;;;;;;;;;;12.65;83.01;99827.91;5070423;28;19988;-60
2023/03/19 02:12:08;;;;;;;;;;;;;;;12.58;82.65;99828.25;5064289;28;19941;-58
2023/03/19 02:14:33;;;;;;;;;;;;;;;12.58;83.18;99833.59;5050044;28;19929;-60
2023/03/19 02:16:58;;;;;;;;;;;;;;;12.59;83.04;99830.88;5062711;28;19947;-60
2023/03/19 02:19:34;;;;;;;;;;;;;;;12.59;82.98;99838.88;5066106;28;19957;-60
2023/03/19 02:22:00;;;;;;;;;;;;;;;12.61;83.19;99838.78;5070168;28;19981;-60
2023/03/19 02:24:32;;;;;;;;;;;;;;;12.60;82.94;99832.59;5069994;28;20053;-61
2023/03/19 02:26:58;;;;;;;;;;;;;;;12.60;83.09;99835.25;5070228;28;19917;-60
2023/03/19 02:29:23;;;;;;;;;;;;;;;12.62;81.77;99840.56;5054281;28;19943;-60
2023/03/19 02:31:49;;;;;;;;;;;;;;;12.64;81.39;99836.00;5049917;28;19993;-60
2023/03/19 02:34:20;;;;;;;;;;;;;;;12.63;81.12;99828.94;5054705;28;19983;-60
2023/03/19 02:36:54;;;;;;;;;;;;;;;12.63;81.24;99832.47;5069639;28;19939;-60
2023/03/19 02:39:23;;;;;;;;;;;;;;;12.62;80.54;99833.38;5061200;28;20346;-60
2023/03/19 02:41:50;;;;;;;;;;;;;;;12.61;80.68;99822.78;5052398;28;19964;-60
2023/03/19 02:44:18;;;;;;;;;;;;;;;12.58;80.14;99837.16;5061640;28;19917;-60
2023/03/19 02:46:44;;;;;;;;;;;;;;;12.55;80.35;99839.06;5052195;28;20012;-60
2023/03/19 02:49:10;;;;;;;;;;;;;;;12.52;80.93;99844.56;5050225;28;19960;-60
2023/03/19 02:51:36;;;;;;;;;;;;;;;12.49;80.27;99840.19;5050081;28;19947;-60
2023/03/19 02:54:02;;;;;;;;;;;;;;;12.49;79.84;99836.66;5050004;28;19931;-60
2023/03/19 02:56:27;;;;;;;;;;;;;;;12.47;80.35;99839.38;5051908;28;19943;-60
2023/03/19 02:58:52;;;;;;;;;;;;;;;12.45;80.46;99843.94;5048813;28;19947;-60
2023/03/19 03:01:18;;;;;;;;;;;;;;;12.44;81.40;99836.84;5049109;28;20474;-60
2023/03/19 03:03:43;;;;;;;;;;;;;;;12.41;81.34;99845.00;5050765;28;20468;-60
2023/03/19 03:06:08;;;;;;;;;;;;;;;12.40;81.49;99845.06;5069520;28;19951;-60
2023/03/19 03:08:35;;;;;;;;;;;;;;;12.36;82.63;99844.31;5072328;28;20483;-58
2023/03/19 03:11:00;;;;;;;;;;;;;;;12.34;83.05;99843.50;5069340;28;20514;-59
2023/03/19 03:13:26;;;;;;;;;;;;;;;12.35;82.96;99844.41;5069279;28;19938;-59
2023/03/19 03:15:52;;;;;;;;;;;;;;;12.34;82.00;99843.50;5073070;28;19931;-59
2023/03/19 03:18:18;;;;;;;;;;;;;;;12.39;81.49;99843.34;5071067;28;19951;-59
2023/03/19 03:20:43;;;;;;;;;;;;;;;12.42;82.07;99852.06;5072730;28;19923;-59
2023/03/19 03:23:09;;;;;;;;;;;;;;;12.43;81.47;99845.81;5066496;28;19946;-59
2023/03/19 03:25:34;;;;;;;;;;;;;;;12.45;81.06;99848.41;5053081;28;19927;-59
2023/03/19 03:28:00;;;;;;;;;;;;;;;12.44;81.86;99843.97;5053177;28;19975;-59
2023/03/19 03:30:25;;;;;;;;;;;;;;;12.42;81.65;99849.38;5057447;28;19943;-59
2023/03/19 03:32:50;;;;;;;;;;;;;;;12.39;80.81;99851.34;5062043;28;19940;-59
2023/03/19 03:35:20;;;;;;;;;;;;;;;12.38;81.12;99852.25;5052430;28;20361;-59
2023/03/19 03:37:46;;;;;;;;;;;;;;;12.40;81.37;99847.72;5060854;28;20361;-59
2023/03/19 03:40:11;;;;;;;;;;;;;;;12.43;81.11;99845.81;5052173;28;19938;-59
2023/03/19 03:42:36;;;;;;;;;;;;;;;12.44;80.51;99846.66;5052083;28;19913;-59
2023/03/19 03:45:02;;;;;;;;;;;;;;;12.43;80.32;99850.25;5055566;28;20000;-59
2023/03/19 03:47:27;;;;;;;;;;;;;;;12.41;80.77;99858.34;5061437;28;19957;-59
2023/03/19 03:49:53;;;;;;;;;;;;;;;12.43;79.55;99851.13;5073031;28;20358;-60
2023/03/19 03:52:18;;;;;;;;;;;;;;;12.46;78.67;99851.00;5072817;28;19930;-59
2023/03/19 03:54:43;;;;;;;;;;;;;;;12.48;78.41;99859.81;5069109;28;19939;-59
2023/03/19 03:57:08;;;;;;;;;;;;;;;12.52;79.11;99858.72;5072807;28;19921;-59
2023/03/19 03:59:34;;;;;;;;;;;;;;;12.52;79.12;99860.56;5063470;28;19939;-59
2023/03/19 04:01:59;;;;;;;;;;;;;;;12.53;79.04;99855.16;5052781;28;20713;-60
2023/03/19 04:04:25;;;;;;;;;;;;;;;12.51;79.08;99859.69;5055860;28;19948;-59
2023/03/19 04:06:50;;;;;;;;;;;;;;;12.52;79.29;99864.06;5072379;28;19941;-59
2023/03/19 04:09:16;;;;;;;;;;;;;;;12.54;79.32;99861.34;5059572;28;19955;-59
2023/03/19 04:11:41;;;;;;;;;;;;;;;12.54;78.50;99870.22;5052260;28;20626;-59
2023/03/19 04:14:07;;;;;;;;;;;;;;;12.55;78.25;99874.59;5054816;28;20019;-59
2023/03/19 04:16:33;;;;;;;;;;;;;;;12.57;78.66;99880.75;5033678;28;19982;-59
2023/03/19 04:18:58;;;;;;;;;;;;;;;12.61;78.57;99882.38;5051913;28;19917;-59
2023/03/19 04:21:24;;;;;;;;;;;;;;;12.62;79.46;99884.09;5051964;28;19917;-59
2023/03/19 04:23:49;;;;;;;;;;;;;;;12.59;79.45;99883.34;5054316;28;19943;-59
2023/03/19 04:26:14;;;;;;;;;;;;;;;12.60;80.11;99885.94;5067001;28;20466;-59
2023/03/19 04:28:40;;;;;;;;;;;;;;;12.59;80.00;99881.56;5072356;28;19989;-59
2023/03/19 04:31:06;;;;;;;;;;;;;;;12.59;81.13;99884.22;5072285;28;20410;-60
2023/03/19 04:33:32;;;;;;;;;;;;;;;12.60;81.01;99885.09;5068002;28;19938;-60
2023/03/19 04:35:57;;;;;;;;;;;;;;;12.57;80.91;99891.41;5072248;28;20452;-60
2023/03/19 04:38:25;;;;;;;;;;;;;;;12.58;79.60;99887.84;5068813;28;19925;-59
2023/03/19 04:40:50;;;;;;;;;;;;;;;12.61;79.43;99886.81;5059695;28;19933;-60
2023/03/19 04:43:16;;;;;;;;;;;;;;;12.63;79.60;99884.97;5071226;28;19954;-60
2023/03/19 04:45:41;;;;;;;;;;;;;;;12.62;79.45;99883.25;5055956;28;20399;-60
2023/03/19 04:48:07;;;;;;;;;;;;;;;12.65;80.67;99889.28;5052065;28;19995;-60
2023/03/19 04:50:33;;;;;;;;;;;;;;;12.60;81.78;99885.09;5054367;28;20018;-60
2023/03/19 04:52:59;;;;;;;;;;;;;;;12.57;81.83;99894.09;5051829;28;19939;-60
2023/03/19 04:55:24;;;;;;;;;;;;;;;12.52;81.39;99890.75;5052208;28;19927;-60
2023/03/19 04:57:49;;;;;;;;;;;;;;;12.49;81.48;99888.22;5053858;28;19947;-60
2023/03/19 05:00:16;;;;;;;;;;;;;;;12.50;81.53;99884.63;5051822;28;19920;-60
2023/03/19 05:02:42;;;;;;;;;;;;;;;12.49;81.49;99888.22;5061418;28;19920;-60
2023/03/19 05:05:08;;;;;;;;;;;;;;;12.48;81.45;99883.81;5071426;28;19988;-60
2023/03/19 05:07:33;;;;;;;;;;;;;;;12.50;81.77;99891.75;5071378;28;19977;-60
2023/03/19 05:09:58;;;;;;;;;;;;;;;12.49;82.73;99890.00;5071435;28;20482;-59
2023/03/19 05:12:24;;;;;;;;;;;;;;;12.48;83.04;99886.50;5057316;28;19942;-60
2023/03/19 05:14:50;;;;;;;;;;;;;;;12.47;83.27;99889.22;5052560;28;20012;-60
2023/03/19 05:17:15;;;;;;;;;;;;;;;12.44;82.44;99898.22;5067481;28;20060;-60
2023/03/19 05:19:40;;;;;;;;;;;;;;;12.42;82.18;99900.06;5060713;28;20056;-60
2023/03/19 05:22:05;;;;;;;;;;;;;;;12.42;81.10;99902.75;5071109;28;20362;-60
2023/03/19 05:24:31;;;;;;;;;;;;;;;12.42;81.29;99891.22;5069041;28;19955;-60
2023/03/19 05:26:56;;;;;;;;;;;;;;;12.41;80.44;99909.00;5070781;28;19928;-60
2023/03/19 05:29:22;;;;;;;;;;;;;;;12.43;79.72;99899.16;5070895;28;19923;-60
2023/03/19 05:31:47;;;;;;;;;;;;;;;12.45;79.85;99902.63;5071323;28;20568;-60
2023/03/19 05:34:12;;;;;;;;;;;;;;;12.46;80.73;99896.34;5058132;28;19950;-60
2023/03/19 05:36:38;;;;;;;;;;;;;;;12.44;79.17;99906.22;5053334;28;19974;-57
2023/03/19 05:39:04;;;;;;;;;;;;;;;12.46;78.83;99899.03;5066943;28;19959;-60
2023/03/19 05:41:31;;;;;;;;;;;;;;;12.47;79.03;99900.75;5050978;28;19928;-60
2023/03/19 05:43:56;;;;;;;;;;;;;;;12.47;78.95;99895.41;5050779;28;19927;-59
2023/03/19 05:46:21;;;;;;;;;;;;;;;12.48;79.34;99909.63;5053013;28;20012;-59
2023/03/19 05:48:47;;;;;;;;;;;;;;;12.48;79.11;99907.84;5049012;28;19947;-59
2023/03/19 05:51:12;;;;;;;;;;;;;;;12.51;78.84;99910.38;5048533;28;19940;-59
2023/03/19 05:53:38;;;;;;;;;;;;;;;12.53;79.74;99911.19;5050525;28;20744;-59
2023/03/19 05:56:03;;;;;;;;;;;;;;;12.53;79.85;99911.19;5052226;28;20007;-59
2023/03/19 05:58:28;;;;;;;;;;;;;;;12.56;80.09;99908.38;5050537;28;20316;-58
2023/03/19 06:00:55;;;;;;;;;;;;;;;12.54;81.29;99907.56;5053223;28;19935;-59
2023/03/19 06:03:20;;;;;;;;;;;;;;;12.51;80.89;99913.03;5050722;28;19932;-58
2023/03/19 06:05:48;;;;;;;;;;;;;;;12.52;80.45;99913.91;5064908;28;19917;-59
2023/03/19 06:08:13;;;;;;;;;;;;;;;12.52;79.94;99917.44;5070176;28;19959;-59
2023/03/19 06:10:38;;;;;;;;;;;;;;;12.54;78.93;99920.03;5062343;28;19931;-59
2023/03/19 06:13:04;;;;;;;;;;;;;;;12.58;79.33;99921.66;5050450;28;20460;-59
2023/03/19 06:15:29;;;;;;;;;;;;;;;12.59;79.42;99924.25;5051891;28;19920;-59
2023/03/19 06:17:54;;;;;;;;;;;;;;;12.61;79.17;99924.19;5033635;28;19955;-60
2023/03/19 06:20:20;;;;;;;;;;;;;;;12.62;79.37;99920.59;5050196;28;20334;-60
2023/03/19 06:22:46;;;;;;;;;;;;;;;12.65;79.83;99921.31;5052879;28;20010;-59
2023/03/19 06:25:11;;;;;;;;;;;;;;;12.69;80.15;99928.28;5063276;28;19928;-59
2023/03/19 06:27:37;;;;;;;;;;;;;;;12.73;80.27;99927.22;5070092;28;19956;-59
2023/03/19 06:30:02;;;;;;;;;;;;;;;12.77;79.96;99928.81;5069909;28;20035;-59
2023/03/19 06:32:27;;;;;;;;;;;;;;;12.85;80.29;99934.69;5055275;28;19966;-59
2023/03/19 06:34:55;;;;;;;;;;;;;;;13.37;81.13;99935.97;5049583;28;19930;-60
2023/03/19 06:37:20;;;;;;;;;;;;;;;14.49;76.75;99936.84;5058262;28;19919;-59
2023/03/19 06:39:46;;;;;;;;;;;;;;;15.38;69.31;99927.69;5064317;28;19943;-59
2023/03/19 06:42:12;;;;;;;;;;;;;;;15.28;65.57;99937.16;5050026;28;19992;-59
2023/03/19 06:44:37;;;;;;;;;;;;;;;14.86;64.71;99933.19;5060457;28;19937;-59
2023/03/19 06:47:02;;;;;;;;;;;;;;;14.38;66.28;99936.50;5069091;28;19923;-60
2023/03/19 06:49:27;;;;;;;;;;;;;;;14.07;67.95;99936.19;5069634;28;20435;-58
2023/03/19 06:51:53;;;;;;;;;;;;;;;13.87;69.71;99929.13;5057347;28;19952;-58
2023/03/19 06:54:18;;;;;;;;;;;;;;;13.68;70.39;99932.75;5049820;28;19968;-58
2023/03/19 06:56:43;;;;;;;;;;;;;;;13.57;71.08;99940.41;5052314;28;19940;-59
2023/03/19 06:59:11;;;;;;;;;;;;;;;13.52;71.58;99945.09;5049502;28;19957;-59
2023/03/19 07:01:37;;;;;;;;;;;;;;;13.50;71.57;99938.94;5058646;28;20284;-59
2023/03/19 07:04:02;;;;;;;;;;;;;;;13.54;72.64;99951.25;5066043;28;19917;-58
2023/03/19 07:06:28;;;;;;;;;;;;;;;13.56;72.95;99944.03;5069926;28;20406;-58
2023/03/19 07:08:54;;;;;;;;;;;;;;;13.59;73.65;99950.06;5069552;28;19920;-59
2023/03/19 07:11:20;;;;;;;;;;;;;;;13.59;73.16;99949.22;5051301;28;19920;-59
2023/03/19 07:13:45;;;;;;;;;;;;;;;13.62;73.49;99949.97;5052471;28;19921;-58
2023/03/19 07:16:11;;;;;;;;;;;;;;;13.63;72.88;99956.16;5060984;28;20288;-58
2023/03/19 07:18:36;;;;;;;;;;;;;;;13.59;71.92;99944.72;5065517;28;19935;-58
2023/03/19 07:21:01;;;;;;;;;;;;;;;13.61;71.09;99952.66;5066777;28;20431;-58
2023/03/19 07:23:27;;;;;;;;;;;;;;;13.72;70.49;99945.88;5069074;28;19937;-59
2023/03/19 07:25:52;;;;;;;;;;;;;;;13.79;70.17;99958.03;5069508;28;19929;-59
2023/03/19 07:28:17;;;;;;;;;;;;;;;13.88;69.95;99956.75;5055747;28;20020;-59
2023/03/19 07:30:43;;;;;;;;;;;;;;;13.99;69.99;99962.44;5049232;28;20697;-59
2023/03/19 07:33:08;;;;;;;;;;;;;;;14.13;69.99;99965.34;5051757;28;20022;-59
2023/03/19 07:35:33;;;;;;;;;;;;;;;14.24;70.66;99965.69;5049502;28;19935;-60
2023/03/19 07:37:59;;;;;;;;;;;;;;;14.33;70.18;99970.66;5063299;28;20402;-59
2023/03/19 07:40:24;;;;;;;;;;;;;;;14.44;70.97;99974.53;5069490;28;20040;-59
2023/03/19 07:42:50;;;;;;;;;;;;;;;14.55;70.26;99976.66;5065811;28;20147;-59
2023/03/19 07:45:15;;;;;;;;;;;;;;;14.64;69.70;99965.53;5066919;28;20054;-59
2023/03/19 07:47:40;;;;;;;;;;;;;;;14.68;66.03;99964.41;5049129;28;19998;-59
2023/03/19 07:50:06;;;;;;;;;;;;;;;14.85;66.17;99969.78;5049185;28;19917;-59
2023/03/19 07:52:31;;;;;;;;;;;;;;;15.10;66.36;99970.28;5054976;28;20390;-59
2023/03/19 07:54:56;;;;;;;;;;;;;;;15.34;64.15;99973.47;5052788;28;19930;-59
2023/03/19 07:57:24;;;;;;;;;;;;;;;15.54;62.41;99984.94;5055454;28;19927;-59
2023/03/19 07:59:49;;;;;;;;;;;;;;;15.83;62.79;99970.81;5052785;28;19927;-59
2023/03/19 08:02:14;;;;;;;;;;;;;;;16.02;63.36;99968.00;5052969;28;20353;-59
2023/03/19 08:04:40;;;;;;;;;;;;;;;16.21;62.58;99962.47;5057863;28;19959;-60
2023/03/19 08:07:09;;;;;;;;;;;;;;;16.32;59.71;99970.78;5067777;28;19936;-60
2023/03/19 08:09:34;;;;;;;;;;;;;;;16.36;58.97;99975.03;5072513;28;19916;-59
2023/03/19 08:12:00;;;;;;;;;;;;;;;16.50;59.75;99970.63;5061681;28;19970;-59
2023/03/19 08:14:25;;;;;;;;;;;;;;;16.53;59.26;99945.41;5052577;28;19963;-60
2023/03/19 08:16:50;;;;;;;;;;;;;;;16.92;57.31;99972.63;5036790;28;19939;-60
2023/03/19 08:19:16;;;;;;;;;;;;;;;17.19;57.36;99980.88;5052270;28;19936;-59
2023/03/19 08:21:41;;;;;;;;;;;;;;;18.03;56.29;99976.47;5054847;28;19938;-59
2023/03/19 08:24:06;;;;;;;;;;;;;;;18.24;53.48;99975.09;5052359;28;19929;-59
2023/03/19 08:26:31;;;;;;;;;;;;;;;17.97;52.40;99982.22;5052203;28;19967;-59
2023/03/19 08:28:57;;;;;;;;;;;;;;;17.99;53.01;99979.47;5055177;28;19950;-58
2023/03/19 08:31:22;;;;;;;;;;;;;;;18.30;51.41;99980.06;5058100;28;20056;-59
2023/03/19 08:33:47;;;;;;;;;;;;;;;18.08;51.44;99985.13;5064265;28;20625;-59
2023/03/19 08:36:13;;;;;;;;;;;;;;;17.99;51.83;99976.78;5071560;28;19941;-59
2023/03/19 08:38:38;;;;;;;;;;;;;;;17.86;52.90;99983.88;5071312;28;19933;-58
2023/03/19 08:41:05;;;;;;;;;;;;;;;17.63;51.94;99981.75;5054477;28;19920;-59
2023/03/19 08:43:30;;;;;;;;;;;;;;;17.63;52.53;99979.06;5052141;28;20059;-59
2023/03/19 08:45:56;;;;;;;;;;;;;;;17.71;52.65;99984.84;5053761;28;19990;-59
2023/03/19 08:48:21;;;;;;;;;;;;;;;17.74;51.96;99973.88;5052942;28;19956;-59
2023/03/19 08:50:51;;;;;;;;;;;;;;;17.82;51.59;99979.66;5062856;28;19946;-59
2023/03/19 08:53:17;;;;;;;;;;;;;;;18.08;51.73;99985.13;5072000;28;19942;-59
2023/03/19 08:55:42;;;;;;;;;;;;;;;18.61;50.63;99978.13;5068618;28;20256;-59
2023/03/19 08:58:08;;;;;;;;;;;;;;;18.99;49.25;99981.81;5051670;28;19943;-59
2023/03/19 09:00:33;;;;;;;;;;;;;;;19.05;48.29;99984.97;5053520;28;19943;-59
2023/03/19 09:02:58;;;;;;;;;;;;;;;19.54;47.24;99980.66;5052054;28;20021;-59
2023/03/19 09:05:23;;;;;;;;;;;;;;;20.10;46.37;99982.03;5062508;28;19917;-59
2023/03/19 09:07:49;;;;;;;;;;;;;;;20.56;46.19;99985.00;5066827;28;20042;-59
2023/03/19 09:10:15;;;;;;;;;;;;;;;20.42;45.32;99982.44;5070561;28;20262;-60
2023/03/19 09:12:40;;;;;;;;;;;;;;;20.38;45.13;99981.78;5068642;28;19965;-60
2023/03/19 09:15:06;;;;;;;;;;;;;;;20.17;45.53;99985.19;5050741;28;20026;-57
2023/03/19 09:17:31;;;;;;;;;;;;;;;20.46;45.84;99986.66;5069640;28;19935;-58
2023/03/19 09:19:57;;;;;;;;;;;;;;;20.50;45.39;99991.72;5068971;28;19931;-59
2023/03/19 09:22:22;;;;;;;;;;;;;;;20.33;46.59;99981.25;5067464;28;19948;-59
2023/03/19 09:24:47;;;;;;;;;;;;;;;20.83;45.02;99982.94;5070813;28;20022;-59
2023/03/19 09:27:12;;;;;;;;;;;;;;;20.83;44.34;99988.34;5070526;28;20728;-59
2023/03/19 09:29:38;;;;;;;;;;;;;;;20.36;45.49;99983.75;5069501;28;19916;-58
2023/03/19 09:32:03;;;;;;;;;;;;;;;19.95;45.29;99983.13;5052982;28;19940;-59
2023/03/19 09:34:28;;;;;;;;;;;;;;;19.75;46.06;99986.41;5050780;28;19917;-58
2023/03/19 09:36:53;;;;;;;;;;;;;;;20.86;45.21;99988.09;5068761;28;20436;-58
2023/03/19 09:39:19;;;;;;;;;;;;;;;21.36;44.93;99992.41;5066691;28;19980;-59
2023/03/19 09:42:02;;;;;;;;;;;;;;;21.04;44.88;99985.91;5050025;28;19927;-59
2023/03/19 09:44:39;;;;;;;;;;;;;;;20.57;42.57;99990.28;5050635;28;20501;-59
2023/03/19 09:47:24;;;;;;;;;;;;;;;20.28;43.11;99991.53;5050138;28;20314;-59
2023/03/19 09:49:51;;;;;;;;;;;;;;;19.97;45.31;99988.41;5049812;28;20028;-59
2023/03/19 09:52:29;;;;;;;;;;;;;;;19.65;45.02;100001.50;5060355;28;20236;-59
2023/03/19 09:54:57;;;;;;;;;;;;;;;19.53;45.77;100002.34;5070549;28;20320;-59
2023/03/19 09:57:23;;;;;;;;;;;;;;;19.59;46.67;100007.31;5070482;28;19977;-58
2023/03/19 09:59:48;;;;;;;;;;;;;;;19.66;46.28;100003.22;5068443;28;19944;-58
2023/03/19 10:02:18;;;;;;;;;;;;;;;19.66;46.78;100000.53;5049737;28;20249;-60
2023/03/19 10:04:46;;;;;;;;;;;;;;;19.76;46.82;99998.91;5056127;28;19966;-60
2023/03/19 10:07:23;;;;;;;;;;;;;;;19.52;46.74;100001.47;5069959;28;19966;-59
2023/03/19 10:10:11;;;;;;;;;;;;;;;19.21;47.24;100006.34;5066966;28;19955;-60
2023/03/19 10:12:49;;;;;;;;;;;;;;;19.24;47.65;100000.78;5061615;28;20025;-60
2023/03/19 10:15:14;;;;;;;;;;;;;;;19.43;47.73;100001.25;5062863;28;19971;-60
2023/03/19 10:17:58;;;;;;;;;;;;;;;19.36;47.75;99994.56;5049880;28;20369;-60
2023/03/19 10:20:26;;;;;;;;;;;;;;;19.48;48.93;100008.06;5050342;28;19912;-60
2023/03/19 10:22:56;;;;;;;;;;;;;;;19.65;48.45;100004.22;5067869;28;20320;-60
2023/03/19 10:25:23;;;;;;;;;;;;;;;19.87;47.80;99996.31;5069921;28;20030;-60
2023/03/19 10:28:00;;;;;;;;;;;;;;;20.07;48.08;100003.00;5057883;28;20393;-60
2023/03/19 10:30:25;;;;;;;;;;;;;;;19.72;47.92;100008.19;5067681;28;20013;-58
2023/03/19 10:32:53;;;;;;;;;;;;;;;19.48;49.44;100008.06;5069010;28;20029;-58
2023/03/19 10:35:22;;;;;;;;;;;;;;;19.35;48.68;100012.59;5069617;28;19927;-58
2023/03/19 10:37:48;;;;;;;;;;;;;;;19.21;48.60;100007.22;5064030;28;19931;-58
2023/03/19 10:40:20;;;;;;;;;;;;;;;19.19;49.99;100008.31;5069864;28;19930;-58
2023/03/19 10:42:55;;;;;;;;;;;;;;;19.16;49.35;100009.38;5050610;28;19936;-57
2023/03/19 10:45:36;;;;;;;;;;;;;;;19.08;48.66;100016.25;5065256;28;19957;-58
2023/03/19 10:48:02;;;;;;;;;;;;;;;18.92;50.35;100015.53;5048841;28;20510;-57
2023/03/19 10:50:30;;;;;;;;;;;;;;;18.89;50.52;100010.34;5050170;28;19970;-58
2023/03/19 10:53:06;;;;;;;;;;;;;;;18.63;51.03;100013.91;5049418;28;19944;-57
2023/03/19 10:55:32;;;;;;;;;;;;;;;18.80;51.17;100016.34;5048378;28;19931;-57
2023/03/19 10:58:17;;;;;;;;;;;;;;;18.76;51.16;100017.53;5048682;28;19945;-57
2023/03/19 11:00:44;;;;;;;;;;;;;;;18.88;52.84;100014.88;5052539;28;19921;-58
2023/03/19 11:03:30;;;;;;;;;;;;;;;18.81;51.06;100004.63;5049646;28;19934;-58
2023/03/19 11:06:14;;;;;;;;;;;;;;;18.91;51.06;100014.66;5060958;28;19950;-59
2023/03/19 11:08:39;;;;;;;;;;;;;;;19.16;50.84;100009.38;5066858;28;19951;-57
2023/03/19 11:11:05;;;;;;;;;;;;;;;19.24;50.22;100012.41;5049466;28;20391;-57
2023/03/19 11:13:33;;;;;;;;;;;;;;;19.24;50.49;100014.25;5067306;28;20068;-57
2023/03/19 11:15:59;;;;;;;;;;;;;;;19.01;50.79;100020.34;5069178;28;19916;-57
2023/03/19 11:18:29;;;;;;;;;;;;;;;19.03;50.84;100007.59;5067961;28;19981;-57
2023/03/19 11:20:57;;;;;;;;;;;;;;;19.23;50.87;100015.22;5064122;28;19935;-57
2023/03/19 11:23:26;;;;;;;;;;;;;;;19.37;50.26;100015.19;5049957;28;19931;-57
2023/03/19 11:25:52;;;;;;;;;;;;;;;19.48;49.77;100010.78;5050522;28;19944;-57
2023/03/19 11:28:20;;;;;;;;;;;;;;;19.31;50.93;100013.75;5067748;28;20096;-57
2023/03/19 11:31:06;;;;;;;;;;;;;;;19.08;49.87;100008.16;5051888;28;19931;-57
2023/03/19 11:33:31;;;;;;;;;;;;;;;18.85;51.06;100012.38;5019180;28;19943;-57
2023/03/19 11:35:56;;;;;;;;;;;;;;;18.83;52.27;100017.00;5072117;28;19929;-57
2023/03/19 11:38:27;;;;;;;;;;;;;;;18.76;51.50;100013.00;5070603;28;19939;-58
2023/03/19 11:41:10;;;;;;;;;;;;;;;18.88;52.48;100008.66;5059029;28;19933;-58
2023/03/19 11:43:58;;;;;;;;;;;;;;;18.70;51.28;100005.31;5051323;28;20025;-58
2023/03/19 11:46:26;;;;;;;;;;;;;;;18.41;53.45;100005.50;5052160;28;20324;-57
2023/03/19 11:48:51;;;;;;;;;;;;;;;18.44;54.02;100007.97;5053414;28;19980;-57
2023/03/19 11:51:26;;;;;;;;;;;;;;;18.41;55.68;100006.34;5054233;28;19933;-57
2023/03/19 11:53:51;;;;;;;;;;;;;;;18.01;57.05;100008.00;5052885;28;19921;-57
2023/03/19 11:56:18;;;;;;;;;;;;;;;17.79;59.66;100010.28;5057471;28;19944;-57
2023/03/19 11:58:56;;;;;;;;;;;;;;;17.54;62.23;100010.09;5052797;28;19929;-57
2023/03/19 12:01:21;;;;;;;;;;;;;;;17.34;66.11;100010.41;5051847;28;19943;-57
2023/03/19 12:04:08;;;;;;;;;;;;;;;17.33;68.07;100000.56;5054720;28;20382;-57
2023/03/19 12:06:46;;;;;;;;;;;;;;;17.46;68.33;100012.34;5053672;28;19984;-58
2023/03/19 12:09:18;;;;;;;;;;;;;;;17.72;67.56;100002.72;5056847;28;19955;-58
2023/03/19 12:11:43;;;;;;;;;;;;;;;17.69;65.70;100005.59;5051905;28;19924;-58
2023/03/19 12:14:31;;;;;;;;;;;;;;;17.68;66.35;99995.78;5054387;28;19923;-57
2023/03/19 12:17:16;;;;;;;;;;;;;;;17.98;65.82;100000.13;5069503;28;19982;-57
2023/03/19 12:19:41;;;;;;;;;;;;;;;18.10;63.34;99991.25;5072164;28;19928;-57
2023/03/19 12:22:16;;;;;;;;;;;;;;;18.20;62.29;99989.72;5068482;28;19989;-57
2023/03/19 12:24:47;;;;;;;;;;;;;;;18.23;60.04;99994.91;5056974;28;19941;-57
2023/03/19 12:27:33;;;;;;;;;;;;;;;18.28;60.86;99990.09;5055134;28;20728;-57
2023/03/19 12:30:10;;;;;;;;;;;;;;;18.35;60.57;99988.72;5052613;28;20617;-58
2023/03/19 12:32:45;;;;;;;;;;;;;;;18.21;59.33;99995.97;5053192;28;20516;-57
2023/03/19 12:35:13;;;;;;;;;;;;;;;18.35;60.12;99991.41;5065250;28;19917;-57
2023/03/19 12:37:58;;;;;;;;;;;;;;;18.38;59.44;99993.91;5065188;28;19937;-57
2023/03/19 12:40:38;;;;;;;;;;;;;;;18.31;59.75;99992.59;5066372;28;20075;-57
2023/03/19 12:43:18;;;;;;;;;;;;;;;18.25;59.90;99997.50;5071981;28;20485;-58
2023/03/19 12:45:45;;;;;;;;;;;;;;;18.35;61.08;99991.41;5060910;28;19960;-57